NKS270 MKJS-KFLL
Flight info
| Callsign | NKS270 |
|---|---|
| Flight time | N/A |
| Altitude | 34000 |
| Route | OTUNU UL417 BORDO OLAHS3 |
| Aircraft | A321/M-SDE3FGHIRWY/LB1 |
Departure
| Time | N/A |
|---|---|
| Airport | Sangster International Airport (MKJS) |
Arrival
| Time | 2026-05-03 21:22 |
|---|---|
| Airport | Fort Lauderdale Hollywood International Airport (KFLL) |
| Time | Latitude | Longitude | Altitude | Speed | Heading |
|---|---|---|---|---|---|
| 2026-05-03 20:15 | 21.33462 | -78.00804 | 33956 ft | 453 kts | 352° |
| 2026-05-03 20:15 | 21.39799 | -78.01175 | 33964 ft | 454 kts | 352° |
| 2026-05-03 20:16 | 21.46146 | -78.01548 | 33969 ft | 454 kts | 352° |
| 2026-05-03 20:16 | 21.52421 | -78.01917 | 33968 ft | 454 kts | 352° |
| 2026-05-03 20:17 | 21.58752 | -78.02290 | 33966 ft | 454 kts | 352° |
| 2026-05-03 20:17 | 21.65079 | -78.02663 | 33965 ft | 453 kts | 352° |
| 2026-05-03 20:18 | 21.71388 | -78.03033 | 33957 ft | 453 kts | 352° |
| 2026-05-03 20:18 | 21.77709 | -78.03408 | 33958 ft | 455 kts | 352° |
| 2026-05-03 20:19 | 21.84046 | -78.03780 | 33960 ft | 455 kts | 352° |
| 2026-05-03 20:19 | 21.90350 | -78.04155 | 33956 ft | 456 kts | 352° |
| 2026-05-03 20:20 | 21.96709 | -78.04530 | 33956 ft | 455 kts | 352° |
| 2026-05-03 20:20 | 22.03016 | -78.04903 | 33955 ft | 455 kts | 352° |
| 2026-05-03 20:21 | 22.09370 | -78.05280 | 33949 ft | 454 kts | 352° |
| 2026-05-03 20:21 | 22.15687 | -78.05656 | 33942 ft | 455 kts | 352° |
| 2026-05-03 20:22 | 22.21995 | -78.06030 | 33936 ft | 455 kts | 352° |
| 2026-05-03 20:22 | 22.28351 | -78.06406 | 33938 ft | 455 kts | 351° |
| 2026-05-03 20:23 | 22.34679 | -78.06784 | 33938 ft | 455 kts | 351° |
| 2026-05-03 20:23 | 22.41035 | -78.07164 | 33939 ft | 456 kts | 351° |
| 2026-05-03 20:24 | 22.47362 | -78.07539 | 33938 ft | 455 kts | 351° |
| 2026-05-03 20:24 | 22.53680 | -78.07917 | 33941 ft | 456 kts | 351° |
| 2026-05-03 20:25 | 22.60010 | -78.08518 | 33939 ft | 449 kts | 343° |
| 2026-05-03 20:25 | 22.66082 | -78.10092 | 33946 ft | 447 kts | 340° |
| 2026-05-03 20:26 | 22.72117 | -78.11735 | 33946 ft | 448 kts | 340° |
| 2026-05-03 20:26 | 22.78164 | -78.13355 | 33948 ft | 447 kts | 340° |
| 2026-05-03 20:27 | 22.84195 | -78.14956 | 33947 ft | 447 kts | 340° |
| 2026-05-03 20:27 | 22.90232 | -78.16554 | 33949 ft | 448 kts | 340° |
| 2026-05-03 20:28 | 22.96309 | -78.18162 | 33951 ft | 448 kts | 340° |
| 2026-05-03 20:28 | 23.02360 | -78.19765 | 33950 ft | 447 kts | 340° |
| 2026-05-03 20:29 | 23.08424 | -78.21374 | 33950 ft | 447 kts | 340° |
| 2026-05-03 20:29 | 23.14482 | -78.22982 | 33948 ft | 447 kts | 340° |
| 2026-05-03 20:30 | 23.20535 | -78.24590 | 33949 ft | 447 kts | 340° |
| 2026-05-03 20:30 | 23.26567 | -78.26194 | 33950 ft | 447 kts | 340° |
| 2026-05-03 20:31 | 23.32638 | -78.27809 | 33949 ft | 447 kts | 340° |
| 2026-05-03 20:31 | 23.38685 | -78.29420 | 33949 ft | 447 kts | 340° |
| 2026-05-03 20:32 | 23.44727 | -78.31031 | 33949 ft | 447 kts | 340° |
| 2026-05-03 20:32 | 23.50801 | -78.32653 | 33950 ft | 447 kts | 340° |
| 2026-05-03 20:33 | 23.56847 | -78.34268 | 33950 ft | 446 kts | 340° |
| 2026-05-03 20:33 | 23.62877 | -78.35880 | 33949 ft | 447 kts | 340° |
| 2026-05-03 20:34 | 23.68889 | -78.37489 | 33951 ft | 446 kts | 340° |
| 2026-05-03 20:34 | 23.74941 | -78.39112 | 33950 ft | 447 kts | 340° |
| 2026-05-03 20:35 | 23.80985 | -78.40733 | 33951 ft | 447 kts | 340° |
| 2026-05-03 20:35 | 23.87021 | -78.42355 | 33952 ft | 447 kts | 340° |
| 2026-05-03 20:36 | 23.93094 | -78.43986 | 33952 ft | 447 kts | 340° |
| 2026-05-03 20:36 | 23.99228 | -78.45267 | 33953 ft | 452 kts | 346° |
| 2026-05-03 20:37 | 24.05547 | -78.45833 | 33954 ft | 458 kts | 352° |
| 2026-05-03 20:37 | 24.08728 | -78.45860 | 33777 ft | 459 kts | 354° |
| 2026-05-03 20:37 | 24.11944 | -78.45841 | 33491 ft | 457 kts | 354° |
| 2026-05-03 20:37 | 24.15114 | -78.45814 | 33209 ft | 455 kts | 354° |
| 2026-05-03 20:38 | 24.18258 | -78.45786 | 32927 ft | 452 kts | 354° |
| 2026-05-03 20:38 | 24.21400 | -78.45762 | 32680 ft | 452 kts | 354° |
| 2026-05-03 20:38 | 24.24575 | -78.45740 | 32432 ft | 452 kts | 354° |
| 2026-05-03 20:38 | 24.27714 | -78.45722 | 32189 ft | 455 kts | 354° |
| 2026-05-03 20:39 | 24.30879 | -78.45704 | 31943 ft | 457 kts | 354° |
| 2026-05-03 20:39 | 24.34089 | -78.45685 | 31695 ft | 459 kts | 354° |
| 2026-05-03 20:39 | 24.37256 | -78.45665 | 31452 ft | 460 kts | 354° |
| 2026-05-03 20:39 | 24.40497 | -78.45643 | 31203 ft | 462 kts | 354° |
| 2026-05-03 20:40 | 24.43696 | -78.45628 | 30959 ft | 463 kts | 354° |
| 2026-05-03 20:40 | 24.46944 | -78.45621 | 30710 ft | 465 kts | 354° |
| 2026-05-03 20:40 | 24.50161 | -78.45615 | 30465 ft | 466 kts | 354° |
| 2026-05-03 20:40 | 24.53409 | -78.45612 | 30217 ft | 468 kts | 354° |
| 2026-05-03 20:41 | 24.56666 | -78.45606 | 29971 ft | 469 kts | 354° |
| 2026-05-03 20:41 | 24.59959 | -78.45599 | 29711 ft | 471 kts | 354° |
| 2026-05-03 20:41 | 24.63251 | -78.45593 | 29280 ft | 473 kts | 355° |
| 2026-05-03 20:41 | 24.66523 | -78.45586 | 28689 ft | 471 kts | 355° |
| 2026-05-03 20:42 | 24.69783 | -78.45576 | 28244 ft | 466 kts | 355° |
| 2026-05-03 20:42 | 24.73016 | -78.45565 | 27781 ft | 461 kts | 355° |
| 2026-05-03 20:42 | 24.76198 | -78.45556 | 27309 ft | 457 kts | 355° |
| 2026-05-03 20:42 | 24.79374 | -78.45550 | 26824 ft | 453 kts | 355° |
| 2026-05-03 20:43 | 24.82529 | -78.45543 | 26333 ft | 449 kts | 355° |
| 2026-05-03 20:43 | 24.85634 | -78.45535 | 25961 ft | 441 kts | 355° |
| 2026-05-03 20:43 | 24.88663 | -78.45528 | 25852 ft | 430 kts | 354° |
| 2026-05-03 20:43 | 24.91645 | -78.45543 | 25879 ft | 433 kts | 354° |
| 2026-05-03 20:44 | 24.94660 | -78.45563 | 25906 ft | 433 kts | 354° |
| 2026-05-03 20:44 | 24.97677 | -78.45581 | 25932 ft | 433 kts | 354° |
| 2026-05-03 20:44 | 25.00729 | -78.45599 | 25950 ft | 434 kts | 354° |
| 2026-05-03 20:44 | 25.03724 | -78.45615 | 25960 ft | 434 kts | 354° |
| 2026-05-03 20:45 | 25.06738 | -78.45631 | 25966 ft | 434 kts | 354° |
| 2026-05-03 20:45 | 25.09763 | -78.45647 | 25961 ft | 433 kts | 353° |
| 2026-05-03 20:45 | 25.12714 | -78.46107 | 25687 ft | 415 kts | 335° |
| 2026-05-03 20:45 | 25.15125 | -78.47623 | 25443 ft | 396 kts | 313° |
| 2026-05-03 20:46 | 25.16858 | -78.49919 | 25208 ft | 383 kts | 297° |
| 2026-05-03 20:46 | 25.18268 | -78.52388 | 24967 ft | 382 kts | 297° |
| 2026-05-03 20:46 | 25.19686 | -78.54830 | 24723 ft | 380 kts | 298° |
| 2026-05-03 20:46 | 25.21131 | -78.57263 | 24475 ft | 378 kts | 298° |
| 2026-05-03 20:47 | 25.22581 | -78.59673 | 24229 ft | 377 kts | 299° |
| 2026-05-03 20:47 | 25.24040 | -78.62072 | 23984 ft | 376 kts | 299° |
| 2026-05-03 20:47 | 25.25508 | -78.64474 | 23738 ft | 374 kts | 299° |
| 2026-05-03 20:47 | 25.26956 | -78.66830 | 23498 ft | 372 kts | 299° |
| 2026-05-03 20:48 | 25.28402 | -78.69177 | 23253 ft | 370 kts | 299° |
| 2026-05-03 20:48 | 25.29841 | -78.71513 | 23010 ft | 368 kts | 299° |
| 2026-05-03 20:48 | 25.31291 | -78.73869 | 22764 ft | 366 kts | 299° |
| 2026-05-03 20:48 | 25.32702 | -78.76158 | 22528 ft | 365 kts | 299° |
| 2026-05-03 20:49 | 25.34132 | -78.78477 | 22288 ft | 363 kts | 299° |
| 2026-05-03 20:49 | 25.35559 | -78.80793 | 22050 ft | 363 kts | 299° |
| 2026-05-03 20:49 | 25.36962 | -78.83069 | 21812 ft | 361 kts | 299° |
| 2026-05-03 20:49 | 25.38370 | -78.85357 | 21567 ft | 360 kts | 299° |
| 2026-05-03 20:50 | 25.39772 | -78.87633 | 21293 ft | 359 kts | 299° |
| 2026-05-03 20:50 | 25.41174 | -78.89913 | 20902 ft | 358 kts | 299° |
| 2026-05-03 20:50 | 25.42571 | -78.92186 | 20438 ft | 356 kts | 299° |
| 2026-05-03 20:50 | 25.43945 | -78.94421 | 19972 ft | 354 kts | 300° |
| 2026-05-03 20:51 | 25.45333 | -78.96680 | 19494 ft | 352 kts | 300° |
| 2026-05-03 20:51 | 25.46703 | -78.98911 | 19015 ft | 351 kts | 300° |
| 2026-05-03 20:51 | 25.48066 | -79.01131 | 18545 ft | 349 kts | 300° |
| 2026-05-03 20:51 | 25.49426 | -79.03346 | 18055 ft | 348 kts | 300° |
| 2026-05-03 20:52 | 25.50781 | -79.05559 | 17573 ft | 347 kts | 300° |
| 2026-05-03 20:52 | 25.52135 | -79.07767 | 17093 ft | 346 kts | 300° |
| 2026-05-03 20:52 | 25.53467 | -79.09939 | 16623 ft | 344 kts | 300° |
| 2026-05-03 20:52 | 25.54809 | -79.12134 | 16134 ft | 343 kts | 300° |
| 2026-05-03 20:53 | 25.56145 | -79.14316 | 15643 ft | 342 kts | 300° |
| 2026-05-03 20:53 | 25.57471 | -79.16482 | 15166 ft | 341 kts | 300° |
| 2026-05-03 20:53 | 25.58800 | -79.18655 | 14667 ft | 341 kts | 300° |
| 2026-05-03 20:53 | 25.60116 | -79.20809 | 14191 ft | 339 kts | 301° |
| 2026-05-03 20:54 | 25.61003 | -79.22261 | 13863 ft | 339 kts | 301° |
| 2026-05-03 20:54 | 25.64066 | -79.27278 | 12730 ft | 337 kts | 301° |
| 2026-05-03 20:54 | 25.65374 | -79.29421 | 12301 ft | 335 kts | 301° |
| 2026-05-03 20:55 | 25.66679 | -79.31557 | 11881 ft | 332 kts | 301° |
| 2026-05-03 20:55 | 25.67959 | -79.33660 | 11406 ft | 331 kts | 301° |
| 2026-05-03 20:55 | 25.69241 | -79.35767 | 10949 ft | 330 kts | 301° |
| 2026-05-03 20:55 | 25.70515 | -79.37858 | 10594 ft | 325 kts | 301° |
| 2026-05-03 20:56 | 25.71777 | -79.39928 | 10305 ft | 318 kts | 301° |
| 2026-05-03 20:56 | 25.72985 | -79.41911 | 10097 ft | 309 kts | 301° |
| 2026-05-03 20:56 | 25.74178 | -79.43871 | 9967 ft | 298 kts | 301° |
| 2026-05-03 20:56 | 25.75320 | -79.45747 | 9697 ft | 293 kts | 301° |
| 2026-05-03 20:57 | 25.76450 | -79.47610 | 9366 ft | 290 kts | 301° |
| 2026-05-03 20:57 | 25.77568 | -79.49452 | 9082 ft | 286 kts | 301° |
| 2026-05-03 20:57 | 25.78660 | -79.51253 | 8797 ft | 282 kts | 301° |
| 2026-05-03 20:57 | 25.79750 | -79.53046 | 8517 ft | 278 kts | 301° |
| 2026-05-03 20:58 | 25.80827 | -79.54823 | 8234 ft | 274 kts | 301° |
| 2026-05-03 20:58 | 25.81871 | -79.56547 | 7883 ft | 270 kts | 301° |
| 2026-05-03 20:58 | 25.82925 | -79.58285 | 7267 ft | 269 kts | 301° |
| 2026-05-03 20:58 | 25.83861 | -79.60014 | 6830 ft | 261 kts | 296° |
| 2026-05-03 20:59 | 25.84639 | -79.61821 | 6464 ft | 257 kts | 291° |
| 2026-05-03 20:59 | 25.85334 | -79.63649 | 6115 ft | 258 kts | 291° |
| 2026-05-03 20:59 | 25.86063 | -79.65446 | 5958 ft | 252 kts | 293° |
| 2026-05-03 20:59 | 25.86810 | -79.67190 | 5953 ft | 248 kts | 293° |
| 2026-05-03 21:00 | 25.87552 | -79.68922 | 5950 ft | 247 kts | 293° |
| 2026-05-03 21:00 | 25.87792 | -79.69479 | 5951 ft | 246 kts | 293° |
| 2026-05-03 21:00 | 25.89019 | -79.72336 | 5949 ft | 245 kts | 294° |
| 2026-05-03 21:00 | 25.89753 | -79.74045 | 5949 ft | 245 kts | 294° |
| 2026-05-03 21:01 | 25.90484 | -79.75753 | 5951 ft | 245 kts | 293° |
| 2026-05-03 21:01 | 25.91220 | -79.77479 | 5951 ft | 245 kts | 293° |
| 2026-05-03 21:01 | 25.91946 | -79.79181 | 5947 ft | 245 kts | 293° |
| 2026-05-03 21:01 | 25.92661 | -79.80857 | 5939 ft | 233 kts | 293° |
| 2026-05-03 21:02 | 25.93340 | -79.82446 | 5942 ft | 222 kts | 293° |
| 2026-05-03 21:02 | 25.93993 | -79.83977 | 5948 ft | 222 kts | 293° |
| 2026-05-03 21:02 | 25.94653 | -79.85525 | 5947 ft | 222 kts | 293° |
| 2026-05-03 21:02 | 25.95317 | -79.87089 | 5934 ft | 222 kts | 293° |
| 2026-05-03 21:03 | 25.95978 | -79.88646 | 5955 ft | 222 kts | 293° |
| 2026-05-03 21:03 | 25.96628 | -79.90176 | 5967 ft | 222 kts | 293° |
| 2026-05-03 21:03 | 25.97293 | -79.91743 | 5967 ft | 221 kts | 293° |
| 2026-05-03 21:03 | 25.97942 | -79.93272 | 5949 ft | 221 kts | 294° |
| 2026-05-03 21:04 | 25.98688 | -79.94782 | 5950 ft | 222 kts | 300° |
| 2026-05-03 21:04 | 25.99584 | -79.96193 | 5958 ft | 223 kts | 306° |
| 2026-05-03 21:04 | 26.00590 | -79.97486 | 5962 ft | 224 kts | 309° |
| 2026-05-03 21:04 | 26.01641 | -79.98783 | 5965 ft | 224 kts | 309° |
| 2026-05-03 21:05 | 26.02688 | -80.00071 | 5965 ft | 224 kts | 309° |
| 2026-05-03 21:05 | 26.03738 | -80.01363 | 5966 ft | 224 kts | 309° |
| 2026-05-03 21:05 | 26.04771 | -80.02637 | 5969 ft | 224 kts | 309° |
| 2026-05-03 21:05 | 26.05808 | -80.03919 | 5968 ft | 224 kts | 309° |
| 2026-05-03 21:06 | 26.06865 | -80.05222 | 5968 ft | 224 kts | 309° |
| 2026-05-03 21:06 | 26.07908 | -80.06506 | 5966 ft | 224 kts | 309° |
| 2026-05-03 21:06 | 26.08952 | -80.07793 | 5966 ft | 223 kts | 309° |
| 2026-05-03 21:06 | 26.09983 | -80.09068 | 5968 ft | 224 kts | 309° |
| 2026-05-03 21:07 | 26.11029 | -80.10365 | 5969 ft | 224 kts | 309° |
| 2026-05-03 21:07 | 26.12083 | -80.11671 | 5972 ft | 224 kts | 309° |
| 2026-05-03 21:07 | 26.13117 | -80.12954 | 5971 ft | 224 kts | 309° |
| 2026-05-03 21:07 | 26.14148 | -80.14271 | 5967 ft | 223 kts | 302° |
| 2026-05-03 21:08 | 26.14837 | -80.15784 | 5964 ft | 221 kts | 284° |
| 2026-05-03 21:08 | 26.15065 | -80.17467 | 5995 ft | 219 kts | 270° |
| 2026-05-03 21:08 | 26.15105 | -80.19140 | 6048 ft | 218 kts | 270° |
| 2026-05-03 21:08 | 26.15116 | -80.20840 | 6095 ft | 218 kts | 269° |
| 2026-05-03 21:09 | 26.15110 | -80.22520 | 6141 ft | 219 kts | 269° |
| 2026-05-03 21:09 | 26.15105 | -80.24220 | 6186 ft | 219 kts | 269° |
| 2026-05-03 21:09 | 26.15102 | -80.25902 | 6064 ft | 216 kts | 269° |
| 2026-05-03 21:09 | 26.15101 | -80.27565 | 5755 ft | 217 kts | 269° |
| 2026-05-03 21:10 | 26.15101 | -80.29255 | 5432 ft | 219 kts | 269° |
| 2026-05-03 21:10 | 26.15100 | -80.30937 | 5138 ft | 220 kts | 269° |
| 2026-05-03 21:10 | 26.15100 | -80.32645 | 4866 ft | 219 kts | 270° |
| 2026-05-03 21:10 | 26.15099 | -80.34329 | 4597 ft | 218 kts | 270° |
| 2026-05-03 21:11 | 26.15081 | -80.36005 | 4329 ft | 218 kts | 269° |
| 2026-05-03 21:11 | 26.15049 | -80.37688 | 4069 ft | 218 kts | 269° |
| 2026-05-03 21:11 | 26.15015 | -80.39371 | 3792 ft | 218 kts | 269° |
| 2026-05-03 21:11 | 26.14978 | -80.41070 | 3529 ft | 218 kts | 270° |
| 2026-05-03 21:12 | 26.14943 | -80.42749 | 3252 ft | 219 kts | 270° |
| 2026-05-03 21:12 | 26.14910 | -80.44455 | 3011 ft | 220 kts | 270° |
| 2026-05-03 21:12 | 26.14876 | -80.46149 | 2977 ft | 222 kts | 271° |
| 2026-05-03 21:12 | 26.14841 | -80.47888 | 2978 ft | 222 kts | 270° |
| 2026-05-03 21:13 | 26.14807 | -80.49595 | 2969 ft | 221 kts | 270° |
| 2026-05-03 21:13 | 26.14774 | -80.51298 | 2967 ft | 221 kts | 270° |
| 2026-05-03 21:13 | 26.14740 | -80.52995 | 2961 ft | 220 kts | 270° |
| 2026-05-03 21:13 | 26.14707 | -80.54694 | 2956 ft | 220 kts | 270° |
| 2026-05-03 21:14 | 26.14661 | -80.56415 | 2957 ft | 220 kts | 266° |
| 2026-05-03 21:14 | 26.14168 | -80.58013 | 2936 ft | 223 kts | 234° |
| 2026-05-03 21:14 | 26.12955 | -80.59058 | 2947 ft | 226 kts | 200° |
| 2026-05-03 21:14 | 26.11387 | -80.59272 | 2972 ft | 228 kts | 178° |
| 2026-05-03 21:15 | 26.09800 | -80.59045 | 2955 ft | 229 kts | 160° |
| 2026-05-03 21:15 | 26.08510 | -80.58069 | 2946 ft | 226 kts | 127° |
| 2026-05-03 21:15 | 26.07755 | -80.56566 | 2966 ft | 224 kts | 112° |
| 2026-05-03 21:15 | 26.07183 | -80.54945 | 2959 ft | 225 kts | 106° |
| 2026-05-03 21:16 | 26.06840 | -80.53262 | 2959 ft | 224 kts | 95° |
| 2026-05-03 21:16 | 26.06747 | -80.51533 | 2960 ft | 223 kts | 89° |
| 2026-05-03 21:16 | 26.06768 | -80.49819 | 2955 ft | 223 kts | 87° |
| 2026-05-03 21:16 | 26.06800 | -80.48089 | 2963 ft | 224 kts | 88° |
| 2026-05-03 21:17 | 26.06816 | -80.46339 | 2965 ft | 224 kts | 89° |
| 2026-05-03 21:17 | 26.06818 | -80.45194 | 2965 ft | 224 kts | 89° |
| 2026-05-03 21:17 | 26.06807 | -80.42875 | 2966 ft | 225 kts | 89° |
| 2026-05-03 21:17 | 26.06791 | -80.41148 | 2967 ft | 225 kts | 90° |
| 2026-05-03 21:18 | 26.06773 | -80.39411 | 2968 ft | 224 kts | 89° |
| 2026-05-03 21:18 | 26.06754 | -80.37682 | 2969 ft | 225 kts | 89° |
| 2026-05-03 21:18 | 26.06737 | -80.35945 | 2971 ft | 225 kts | 89° |
| 2026-05-03 21:18 | 26.06720 | -80.34197 | 2961 ft | 225 kts | 89° |
| 2026-05-03 21:19 | 26.06705 | -80.32462 | 2786 ft | 224 kts | 89° |
| 2026-05-03 21:19 | 26.06691 | -80.30740 | 2507 ft | 225 kts | 89° |
| 2026-05-03 21:19 | 26.06677 | -80.28999 | 2220 ft | 225 kts | 89° |
| 2026-05-03 21:19 | 26.06664 | -80.27276 | 1924 ft | 219 kts | 88° |
| 2026-05-03 21:20 | 26.06650 | -80.25641 | 1641 ft | 203 kts | 88° |
| 2026-05-03 21:20 | 26.06639 | -80.24131 | 1445 ft | 185 kts | 88° |
| 2026-05-03 21:20 | 26.06630 | -80.22751 | 1220 ft | 174 kts | 89° |
| 2026-05-03 21:20 | 26.06622 | -80.21450 | 1004 ft | 163 kts | 88° |
| 2026-05-03 21:21 | 26.06614 | -80.20227 | 768 ft | 152 kts | 88° |
| 2026-05-03 21:21 | 26.06606 | -80.19093 | 560 ft | 142 kts | 88° |
| 2026-05-03 21:21 | 26.06600 | -80.17992 | 403 ft | 142 kts | 88° |
| 2026-05-03 21:21 | 26.06597 | -80.16899 | 233 ft | 141 kts | 88° |
| 2026-05-03 21:22 | 26.06591 | -80.15810 | 54 ft | 141 kts | 89° |
| 2026-05-03 21:22 | 26.06586 | -80.14774 | 12 ft | 112 kts | 90° |
| 2026-05-03 21:22 | 26.06580 | -80.14081 | 12 ft | 73 kts | 91° |
| 2026-05-03 21:22 | 26.06645 | -80.13764 | 12 ft | 22 kts | 46° |
| 2026-05-03 21:23 | 26.06735 | -80.13750 | 12 ft | 4 kts | 274° |
| 2026-05-03 21:23 | 26.06741 | -80.13821 | 12 ft | 14 kts | 275° |
| 2026-05-03 21:23 | 26.06743 | -80.13932 | 12 ft | 14 kts | 271° |
| 2026-05-03 21:23 | 26.06719 | -80.14040 | 12 ft | 14 kts | 243° |
| 2026-05-03 21:24 | 26.06688 | -80.14153 | 12 ft | 16 kts | 272° |
| 2026-05-03 21:24 | 26.06691 | -80.14289 | 12 ft | 18 kts | 270° |
| 2026-05-03 21:24 | 26.06691 | -80.14431 | 12 ft | 18 kts | 270° |
| 2026-05-03 21:24 | 26.06692 | -80.14573 | 12 ft | 18 kts | 270° |
| 2026-05-03 21:25 | 26.06693 | -80.14716 | 12 ft | 18 kts | 270° |
| 2026-05-03 21:25 | 26.06693 | -80.14816 | 12 ft | 7 kts | 270° |
| 2026-05-03 21:25 | 26.06693 | -80.14832 | 12 ft | 0 kts | 270° |
| 2026-05-03 21:27 | 26.06693 | -80.14879 | 12 ft | 13 kts | 271° |
| 2026-05-03 21:27 | 26.06694 | -80.15035 | 12 ft | 21 kts | 270° |
| 2026-05-03 21:28 | 26.06737 | -80.15125 | 12 ft | 8 kts | 1° |
| 2026-05-03 21:28 | 26.06829 | -80.15132 | 12 ft | 15 kts | 359° |
| 2026-05-03 21:28 | 26.06909 | -80.15117 | 12 ft | 8 kts | 58° |
| 2026-05-03 21:28 | 26.06912 | -80.15047 | 12 ft | 12 kts | 90° |
| 2026-05-03 21:29 | 26.06912 | -80.14936 | 12 ft | 16 kts | 89° |
| 2026-05-03 21:29 | 26.06920 | -80.14807 | 12 ft | 16 kts | 67° |
| 2026-05-03 21:29 | 26.06940 | -80.14729 | 12 ft | 10 kts | 125° |
| 2026-05-03 21:29 | 26.06889 | -80.14665 | 12 ft | 10 kts | 137° |
| 2026-05-03 21:30 | 26.06848 | -80.14622 | 12 ft | 4 kts | 133° |
| 2026-05-03 21:30 | 26.06844 | -80.14616 | 12 ft | 0 kts | 133° |
| 2026-05-03 21:32 | 26.06840 | -80.14613 | 12 ft | 2 kts | 134° |
| 2026-05-03 21:33 | 26.06821 | -80.14554 | 12 ft | 11 kts | 90° |
| 2026-05-03 21:33 | 26.06821 | -80.14484 | 12 ft | 4 kts | 87° |
| 2026-05-03 21:33 | 26.06825 | -80.14475 | 12 ft | 0 kts | 37° |
| 2026-05-03 21:33 | 26.06827 | -80.14475 | 12 ft | 0 kts | 6° |
| 2026-05-03 21:34 | 26.06836 | -80.14475 | 12 ft | 2 kts | 359° |
| 2026-05-03 21:34 | 26.06862 | -80.14475 | 12 ft | 3 kts | 360° |
| 2026-05-03 21:34 | 26.06875 | -80.14475 | 12 ft | 0 kts | 0° |